Terminal Aerodrome Forecast
Issued by NWS

Home | Current Version | Previous Version | Text Only | Print | Product List | Glossary On
Versions: 1 2 3 4 5 6 7 8 9 10 11 12 13 14 15 16 17 18 19 20 21 22 23 24 25 26 27 28 29 30 31 32 33 34 35 36 37
000
FTUS41 KOKX 241443 AAE
TAFGON
TAF AMD
KGON 241443Z 2415/2512 23008KT P6SM SCT100 BKN200
     FM241900 32009KT 6SM -SHRA FEW020 OVC060
     FM242300 32006KT 6SM -RA SCT025 OVC070
     FM250200 VRB03KT 6SM -RA SCT015 OVC030
     FM250500 06007KT 6SM -RA SCT009 OVC030
     FM250700 07011G21KT 5SM -RA OVC025
     FM251100 08015G27KT 5SM RA BR OVC018=

USA.gov is the U.S. government's official web portal to all federal, state and local government web resources and services.